Tiempo atmosférico en la estación meteorológica de Fuente El Sol, Valladolid (755 m.)

Fecha
DESCASC
Temp. máxima en grados centígrados (hora)
DESCASC
Temp. mínima en grados centígrados (hora)
DESCASC
Temp. media en grados centígrados
DESCASC
Racha de viento máxima en m/sg (hora)
DESCASC
Velocidad máxima media en intervalos de 10 minutos(hora)
DESCASC
Precipitaciones diarias en mm
DESCASC
Precipitaciones de 00:00 a 06:00 en mm
DESCASC
Precipitaciones de 06:00 a 12:00 en mm
DESCASC
Precipitaciones de 12:00 a 18:00 en mm
DESCASC
Precipitaciones de 18:00 a 24:00 en mm
DESCASC
21-08-2017 38.8 (18:50) 10.9 (06:20) 24.8 7.78 (11:20) 5.83 (22:40) 0 0 0 0 0
20-08-2017 34.4 (18:00) 10.5 (07:40) 22.5 11.11 (18:50) 6.11 (19:30) 0 0 0 0 0
19-08-2017 33.1 (18:50) 13.4 (06:50) 23.2 9.17 (16:40) 5 (20:30) 0 0 0 0 0
18-08-2017 33.5 (17:20) 15.6 (07:20) 24.6 7.78 (12:10) 5 (04:50) 0 0 0 0 0
17-08-2017 35.6 (18:30) 12.5 (00:00) 24 6.39 (16:40) 3.61 (23:30) 0 0 0 0 0
16-08-2017 32 (19:10) 12.8 (00:00) 22.4 6.39 (17:10) 4.44 (17:10) 0 0 0 0 0
15-08-2017 31.3 (17:50) 16.6 (00:00) 23.9 11.11 (19:20) 7.78 (19:30) 0 0 0 0 0
14-08-2017 35.2 (15:30) 15.2 (04:30) 25.2 12.5 (20:20) 9.17 (19:00) 0 0 0 0 0
13-08-2017 34.3 (18:20) 10.4 (00:00) 22.3 9.17 (16:30) 5.28 (17:50) 0 0 0 0 0
12-08-2017 31.4 (18:40) 7.8 (00:00) 19.6 7.78 (17:40) 3.89 (18:10) 0 0 0 0 0
11-08-2017 27.8 (17:40) 6 (00:00) 16.9 6.67 (01:30) 4.72 (01:30) 0 0 0 0 0
10-08-2017 24.6 (18:30) 4.6 (00:00) 14.6 10 (12:30) 5.56 (00:30) 0 0 0 0 0
09-08-2017 23.4 (16:50) 8 (00:00) 15.7 11.94 (13:40) 7.5 (20:50) 0 0 0 0 0
08-08-2017 25.9 (18:00) 10.5 (00:00) 18.2 7.22 (16:30) 4.72 (01:40) 0 0 0 0 0
07-08-2017 31.3 (16:10) 11.3 (00:00) 21.3 13.06 (17:10) 8.61 (17:40) 0 0 0 0 0
06-08-2017 32.5 (17:40) 12.1 (00:00) 22.3 11.11 (00:30) 7.78 (00:20) 0 0 0 0 0
05-08-2017 35.1 (18:50) 16.3 (00:00) 25.7 11.94 (20:40) 8.33 (20:40) 0 0 0 0 0
04-08-2017 36.4 (19:00) 17.2 (00:00) 26.8 7.78 (20:40) 4.72 (20:40) 0 0 0 0 0
03-08-2017 33.2 (17:30) 15.8 (00:00) 24.5 10 (18:00) 6.67 (18:40) 0 0 0 0 0
02-08-2017 33.2 (17:20) 11.5 (00:00) 22.4 11.11 (19:50) 5.28 (19:20) 0 0 0 0 0
01-08-2017 30.1 (18:20) 12.8 (00:00) 21.5 8.89 (17:30) 5.28 (17:50) 0 0 0 0 0
31-07-2017 29.6 (18:00) 12.5 (00:00) 21.1 12.22 (18:50) 9.17 (19:00) 0 0 0 0 0
30-07-2017 32.9 (18:00) 15 (00:00) 24 13.61 (16:30) 8.61 (17:10) 0 0 0 0 0
29-07-2017 34.2 (17:40) 16 (00:00) 25.1 11.94 (20:40) 7.5 (20:10) 0 0 0 0 0
28-07-2017 34 (18:10) 15.6 (00:00) 24.8 11.39 (17:30) 6.11 (19:40) 0 0 0 0 0
27-07-2017 35 (17:40) 15.2 (00:00) 25.1 11.39 (16:30) 7.5 (17:00) 0 0 0 0 0
26-07-2017 32.4 (18:00) 12.2 (00:00) 22.3 7.5 (14:50) 4.17 (00:10) 0 0 0 0 0
25-07-2017 27.8 (17:50) 11.1 (00:00) 19.4 10.83 (16:00) 5 (18:50) 0 0 0 0 0
24-07-2017 30.1 (18:10) 13.5 (00:00) 21.8 10 (00:40) 7.22 (00:30) 0 0 0 0 0
23-07-2017 31.2 (18:10) 11.2 (00:00) 21.2 10 (15:10) 6.67 (23:50) 0 0 0 0 0

Gráficas

Temp. máximas Temp. mínimas Temp. medias Precipitaciones Rachas de viento máximas Velocidades máximas media en intervalos de 10 minutos

Datos horarios

Fecha y hora oficial Temperatura (ºC) Velocidad del viento (km/h) Dirección del viento Racha (km/h) Dirección de racha Precipitación (mm) Presión (hPa) Tendencia (hPa) Humedad (%)
2017-08-21 23:00:00 28.5 19 Sudoeste 27 Sudoeste 0 -- -- 39
2017-08-21 22:00:00 31.4 17 Sudoeste 26 Sudoeste 0 -- -- 32
2017-08-21 21:00:00 32.9 20 Sudeste 26 Sudeste 0 -- -- 28
2017-08-21 20:00:00 36.6 7 Sudoeste 15 Sudoeste 0 -- -- 22
2017-08-21 19:00:00 38.2 10 Noroeste 19 Oeste 0 -- -- 18
2017-08-21 18:00:00 38.1 13 Oeste 23 Oeste 0 -- -- 18
2017-08-21 17:00:00 37.8 6 Sudoeste 23 Sudoeste 0 -- -- 18
2017-08-21 16:00:00 37.7 10 Noroeste 20 Sur 0 -- -- 19
2017-08-21 15:00:00 36.7 7 Nordeste 18 Este 0 -- -- 21
2017-08-21 14:00:00 36.1 7 Oeste 15 Noroeste 0 -- -- 22
2017-08-21 13:00:00 34.5 7 Nordeste 22 Este 0 -- -- 24
2017-08-21 12:00:00 32.8 9 Este 28 Este 0 -- -- 29
2017-08-21 11:00:00 30.1 16 Sudeste 27 Sudeste 0 -- -- 34
2017-08-21 10:00:00 26.3 8 Nordeste 18 Nordeste 0 -- -- 32
2017-08-21 09:00:00 18.9 13 Nordeste 18 Nordeste 0 -- -- 42
2017-08-21 08:00:00 13.7 6 Nordeste 11 Nordeste 0 -- -- 53
2017-08-21 07:00:00 12.6 5 Nordeste 11 Nordeste 0 -- -- 55
2017-08-21 06:00:00 11.3 4 Oeste 6 Sur 0 -- -- 58
2017-08-21 05:00:00 12.4 0 Calma 4 Este 0 -- -- 57
2017-08-21 04:00:00 13.1 0 Calma 5 Sudeste 0 -- -- 56
2017-08-21 03:00:00 14.4 3 Este 5 Sur 0 -- -- 45
2017-08-21 02:00:00 15.9 7 Sur 12 Sur 0 -- -- 51
2017-08-21 01:00:00 17.7 5 Nordeste 6 Nordeste 0 -- -- 39
2017-08-21 00:00:00 19.8 2 Sudeste 18 Nordeste 0 -- -- 33
2017-08-20 23:00:00 24.5 13 Nordeste 21 Norte 0 -- -- 26
2017-08-20 22:00:00 26.1 13 Norte 22 Norte 0 -- -- 24
2017-08-20 21:00:00 29.5 18 Norte 35 Norte 0 -- -- 19
2017-08-20 20:00:00 32.6 20 Norte 32 Norte 0 -- -- 16
2017-08-20 19:00:00 33.9 17 Nordeste 40 Norte 0 -- -- 16
2017-08-20 18:00:00 34.4 10 Nordeste 24 Nordeste 0 -- -- 13
2017-08-20 17:00:00 33.4 13 Norte 26 Norte 0 -- -- 14
2017-08-20 16:00:00 32.4 12 Norte 25 Norte 0 -- -- 15
2017-08-20 15:00:00 30.8 14 Norte 29 Norte 0 -- -- 17
2017-08-20 14:00:00 29 12 Norte 24 Norte 0 -- -- 18
2017-08-20 13:00:00 27.2 10 Norte 23 Norte 0 -- -- 24
2017-08-20 12:00:00 23.8 10 Nordeste 16 Nordeste 0 -- -- 37
2017-08-20 11:00:00 20.7 9 Nordeste 17 Nordeste 0 -- -- 43
2017-08-20 10:00:00 17.7 7 Norte 12 Norte 0 -- -- 51
2017-08-20 09:00:00 15.1 7 Norte 11 Norte 0 -- -- 64
2017-08-20 08:00:00 11.5 0 Calma 4 Norte 0 -- -- 81
2017-08-20 07:00:00 10.8 3 Noroeste 4 Noroeste 0 -- -- 82
2017-08-20 06:00:00 11.5 4 Noroeste 5 Noroeste 0 -- -- 81
2017-08-20 05:00:00 12.6 4 Noroeste 9 Nordeste 0 -- -- 76
2017-08-20 04:00:00 15.2 4 Nordeste 17 Norte 0 -- -- 68
2017-08-20 03:00:00 16 10 Norte 15 Norte 0 -- -- 65
2017-08-20 02:00:00 17.7 6 Nordeste 16 Nordeste 0 -- -- 55
2017-08-20 01:00:00 19 10 Nordeste 24 Nordeste 0 -- -- 52
2017-08-20 00:00:00 21.2 13 Nordeste 22 Nordeste 0 -- -- 45
2017-08-19 23:00:00 23.6 17 Norte 23 Norte 0 -- -- 37
2017-08-19 22:00:00 26.1 15 Norte 22 Norte 0 -- -- 31
2017-08-19 21:00:00 28.3 17 Norte 24 Norte 0 -- -- 31
2017-08-19 20:00:00 30.3 15 Noroeste 22 Norte 0 -- -- 30
2017-08-19 19:00:00 31.7 13 Norte 25 Norte 0 -- -- 28
2017-08-19 18:00:00 31.6 13 Noroeste 25 Noroeste 0 -- -- 28
2017-08-19 17:00:00 31.8 14 Noroeste 33 Norte 0 -- -- 31
2017-08-19 16:00:00 31 15 Noroeste 24 Norte 0 -- -- 31
2017-08-19 15:00:00 29.4 10 Norte 23 Norte 0 -- -- 34
2017-08-19 14:00:00 28.3 12 Norte 23 Norte 0 -- -- 38
2017-08-19 13:00:00 26.2 13 Norte 26 Norte 0 -- -- 43
2017-08-19 12:00:00 24.1 15 Norte 32 Norte 0 -- -- 48
2017-08-19 11:00:00 21.7 14 Norte 24 Norte 0 -- -- 55
2017-08-19 10:00:00 19.2 11 Norte 16 Nordeste 0 -- -- 64
2017-08-19 09:00:00 17.8 4 Noroeste 6 Noroeste 0 -- -- 69
2017-08-19 08:00:00 14.2 2 Sudeste 4 Sudeste 0 -- -- 80
2017-08-19 07:00:00 13.6 2 Norte 6 Noroeste 0 -- -- 85
2017-08-19 06:00:00 14.5 3 Norte 13 Norte 0 -- -- 81
2017-08-19 05:00:00 16.5 10 Norte 17 Norte 0 -- -- 74
2017-08-19 04:00:00 17.3 11 Norte 19 Norte 0 -- -- 72
2017-08-19 03:00:00 17.9 11 Norte 18 Norte 0 -- -- 71
2017-08-19 02:00:00 19.3 13 Norte 18 Norte 0 -- -- 66
2017-08-19 01:00:00 20.7 5 Noroeste 23 Nordeste 0 -- -- 60
2017-08-19 00:00:00 21.7 9 Norte 15 Norte 0 -- -- 49
2017-08-18 23:00:00 23.8 11 Norte 18 Norte 0 -- -- 40
2017-08-18 22:00:00 24.2 8 Norte 12 Noroeste 0 -- -- 34
2017-08-18 21:00:00 28.6 8 Norte 18 Norte 0 -- -- 27
2017-08-18 20:00:00 30.6 15 Norte 22 Noroeste 0 -- -- 25
2017-08-18 19:00:00 32.4 9 Norte 26 Oeste 0 -- -- 23
2017-08-18 18:00:00 33.1 14 Noroeste 26 Noroeste 0 -- -- 23
2017-08-18 17:00:00 32.2 12 Noroeste 24 Noroeste 0 -- -- 22
2017-08-18 16:00:00 32.2 11 Oeste 27 Oeste 0 -- -- 23
2017-08-18 15:00:00 31.5 12 Oeste 22 Oeste 0 -- -- 25
2017-08-18 14:00:00 29.9 13 Oeste 22 Oeste 0 -- -- 28
2017-08-18 13:00:00 28.6 9 Oeste 28 Noroeste 0 -- -- 34
2017-08-18 12:00:00 27.3 15 Noroeste 22 Noroeste 0 -- -- 36
2017-08-18 11:00:00 25.1 13 Noroeste 24 Noroeste 0 -- -- 43
2017-08-18 10:00:00 22.4 16 Oeste 22 Oeste 0 -- -- 48
2017-08-18 09:00:00 19.6 13 Sudoeste 23 Sudoeste 0 -- -- 58
2017-08-18 08:00:00 17.1 16 Sudoeste 21 Sudoeste 0 -- -- 62
2017-08-18 07:00:00 16.2 12 Sudoeste 17 Sudoeste 0 -- -- 63
2017-08-18 06:00:00 17.2 14 Sudoeste 20 Sudoeste 0 -- -- 57
2017-08-18 05:00:00 18.2 17 Sudoeste 23 Sudoeste 0 -- -- 53
2017-08-18 04:00:00 18.3 15 Sudoeste 17 Sudoeste 0 -- -- 51
2017-08-18 03:00:00 19.1 12 Sudoeste 16 Sudoeste 0 -- -- 47
2017-08-18 02:00:00 18.8 11 Sudoeste 15 Sudoeste 0 -- -- 50
2017-08-18 01:00:00 20.8 5 Sudoeste 12 Oeste 0 -- -- 43
2017-08-18 00:00:00 21.6 10 Oeste 21 Sudoeste 0 -- -- 45
2017-08-17 23:00:00 23.9 2 Sudeste 10 Norte 0 -- -- 36
2017-08-17 22:00:00 26.9 7 Norte 15 Norte 0 -- -- 33
2017-08-17 21:00:00 30 12 Norte 15 Norte 0 -- -- 28
2017-08-17 20:00:00 33.7 6 Norte 19 Oeste 0 -- -- 22
2017-08-17 19:00:00 34.6 12 Noroeste 19 Noroeste 0 -- -- 21
2017-08-17 18:00:00 34.8 12 Oeste 19 Noroeste 0 -- -- 21
2017-08-17 17:00:00 34.4 4 Sur 23 Oeste 0 -- -- 22
2017-08-17 16:00:00 33.6 9 Oeste 17 Oeste 0 -- -- 23
2017-08-17 15:00:00 33.4 9 Oeste 17 Este 0 -- -- 23
2017-08-17 14:00:00 31.6 10 Noroeste 17 Noroeste 0 -- -- 26
2017-08-17 13:00:00 29.7 6 Noroeste 15 Oeste 0 -- -- 30
2017-08-17 12:00:00 27.7 6 Noroeste 12 Oeste 0 -- -- 34
2017-08-17 11:00:00 24.3 5 Noroeste 16 Noroeste 0 -- -- 42
2017-08-17 10:00:00 21.9 6 Oeste 10 Oeste 0 -- -- 46
2017-08-17 09:00:00 17.9 4 Sur 12 Oeste 0 -- -- 54
2017-08-17 08:00:00 13.1 8 Sudoeste 9 Sudoeste 0 -- -- 70
2017-08-17 07:00:00 12.8 0 Calma 7 Oeste 0 -- -- 71
2017-08-17 06:00:00 12.8 8 Sudoeste 9 Sudoeste 0 -- -- 70
2017-08-17 05:00:00 15 0 Calma 7 Nordeste 0 -- -- 56
2017-08-17 04:00:00 15.3 2 Noroeste 14 Sudoeste 0 -- -- 58
2017-08-17 03:00:00 15.9 9 Sudoeste 20 Oeste 0 -- -- 56
2017-08-17 02:00:00 17.5 4 Sur 8 Sur 0 -- -- 49
2017-08-17 01:00:00 19.2 8 Sur 9 Sur 0 -- -- 41
2017-08-17 00:00:00 20.3 3 Sur 5 Noroeste 0 -- -- 42
2017-08-16 23:00:00 21.7 5 Noroeste 9 Noroeste 0 -- -- 40
2017-08-16 22:00:00 23.5 9 Noroeste 12 Noroeste 0 -- -- 37
2017-08-16 21:00:00 27.3 12 Noroeste 23 Noroeste 0 -- -- 29
2017-08-16 20:00:00 31.2 10 Oeste 19 Oeste 0 -- -- 24
2017-08-16 19:00:00 31.9 9 Noroeste 22 Oeste 0 -- -- 20
2017-08-16 18:00:00 31.5 8 Noroeste 23 Oeste 0 -- -- 23
2017-08-16 17:00:00 31.3 11 Oeste 20 Oeste 0 -- -- 22
2017-08-16 16:00:00 30.3 10 Oeste 21 Oeste 0 -- -- 21
2017-08-16 15:00:00 29.3 10 Noroeste 20 Noroeste 0 -- -- 30
2017-08-16 14:00:00 27.6 10 Oeste 18 Oeste 0 -- -- 35
2017-08-16 13:00:00 25.9 7 Noroeste 17 Noroeste 0 -- -- 43
2017-08-16 12:00:00 24.5 9 Noroeste 15 Oeste 0 -- -- 51
2017-08-16 11:00:00 22 5 Noroeste 13 Noroeste 0 -- -- 58
2017-08-16 10:00:00 20.1 6 Oeste 11 Oeste 0 -- -- 63
2017-08-16 09:00:00 16.3 8 Sudoeste 12 Sudoeste 0 -- -- 69
2017-08-16 08:00:00 13 5 Sudoeste 8 Sudoeste 0 -- -- 78
2017-08-16 07:00:00 13.4 4 Sur 13 Sudoeste 0 -- -- 73
2017-08-16 06:00:00 13.9 11 Sudoeste 14 Sudoeste 0 -- -- 72
2017-08-16 05:00:00 14.7 13 Sudoeste 21 Sudoeste 0 -- -- 69
2017-08-16 04:00:00 15.7 12 Sudoeste 17 Sudoeste 0 -- -- 65
2017-08-16 03:00:00 16.5 10 Sudoeste 15 Sudoeste 0 -- -- 56
2017-08-16 02:00:00 16.9 7 Sudoeste 16 Sudoeste 0 -- -- 55
2017-08-16 01:00:00 17.6 14 Sudoeste 22 Sudoeste 0 -- -- 47
2017-08-16 00:00:00 17.5 7 Sudoeste 8 Sur 0 -- -- 54
2017-08-15 23:00:00 20 5 Sur 10 Sudoeste 0 -- -- 34
2017-08-15 22:00:00 22 6 Sudoeste 13 Oeste 0 -- -- 30
2017-08-15 21:00:00 26.3 13 Oeste 37 Oeste 0 -- -- 22
2017-08-15 20:00:00 28.9 26 Oeste 40 Sudoeste 0 -- -- 24
2017-08-15 19:00:00 30.5 24 Oeste 34 Oeste 0 -- -- 21
2017-08-15 18:00:00 31 24 Oeste 37 Oeste 0 -- -- 23
2017-08-15 17:00:00 31.1 18 Sudoeste 33 Sudoeste 0 -- -- 23
2017-08-15 16:00:00 29.7 20 Oeste 33 Sudoeste 0 -- -- 24
2017-08-15 15:00:00 29.5 19 Sudoeste 33 Sudoeste 0 -- -- 27
2017-08-15 14:00:00 28.5 18 Sudoeste 29 Sudoeste 0 -- -- 27
2017-08-15 13:00:00 28.1 10 Oeste 18 Oeste 0 -- -- 29
2017-08-15 12:00:00 25.7 5 Noroeste 18 Oeste 0 -- -- 38
2017-08-15 11:00:00 24.5 11 Oeste 17 Oeste 0 -- -- 42
2017-08-15 10:00:00 21.7 14 Sudoeste 20 Sudoeste 0 -- -- 51
2017-08-15 09:00:00 19.4 12 Sudoeste 19 Sudoeste 0 -- -- 56
2017-08-15 08:00:00 17.5 12 Sur 21 Sudoeste 0 -- -- 57
2017-08-15 07:00:00 16.9 13 Sudoeste 20 Sudoeste 0 -- -- 60
2017-08-15 06:00:00 17.3 17 Sudoeste 22 Sudoeste 0 -- -- 57
2017-08-15 05:00:00 17.2 16 Sudoeste 22 Sudoeste 0 -- -- 56
2017-08-15 04:00:00 18.3 14 Sudoeste 15 Sudoeste 0 -- -- 54
2017-08-15 03:00:00 19.6 5 Sudeste 15 Este 0 -- -- 52
2017-08-15 02:00:00 19.4 11 Este 16 Este 0 -- -- 52
2017-08-15 01:00:00 21.1 6 Sur 14 Sudoeste 0 -- -- 48
2017-08-15 00:00:00 22 13 Sudoeste 25 Sudeste 0 -- -- 51
2017-08-14 23:00:00 24.1 19 Sudeste 28 Sudeste 0 -- -- 47
2017-08-14 22:00:00 27.7 19 Sur 27 Sur 0 -- -- 34
2017-08-14 21:00:00 27.4 20 Sudeste 45 Sudeste 0 -- -- 35
2017-08-14 20:00:00 30.2 24 Sudeste 40 Sudeste 0 -- -- 28
2017-08-14 19:00:00 30.1 33 Sudeste 42 Sudeste 0 -- -- 29
2017-08-14 18:00:00 32.5 26 Sudeste 42 Sudeste 0 -- -- 24
2017-08-14 17:00:00 33.5 19 Sudeste 33 Sudoeste 0 -- -- 22
2017-08-14 16:00:00 35.1 16 Oeste 27 Sudoeste 0 -- -- 18
2017-08-14 15:00:00 34.2 17 Sudoeste 36 Oeste 0 -- -- 19
2017-08-14 14:00:00 34.3 18 Sudoeste 32 Sudoeste 0 -- -- 19
2017-08-14 13:00:00 33 10 Sudoeste 20 Sudoeste 0 -- -- 19
2017-08-14 12:00:00 31.8 4 Noroeste 9 Oeste 0 -- -- 22
2017-08-14 11:00:00 28.5 4 Sur 9 Sudoeste 0 -- -- 26
2017-08-14 10:00:00 25.3 8 Sur 15 Sudeste 0 -- -- 32
2017-08-14 09:00:00 21.5 6 Sudeste 13 Sur 0 -- -- 38
2017-08-14 08:00:00 17.1 9 Sur 13 Sur 0 -- -- 38
2017-08-14 07:00:00 16.1 11 Sur 14 Sur 0 -- -- 40
2017-08-14 06:00:00 15.4 6 Sur 13 Sudeste 0 -- -- 48
2017-08-14 05:00:00 16.3 13 Sudeste 24 Este 0 -- -- 42
2017-08-14 04:00:00 16.8 6 Sur 18 Sudoeste 0 -- -- 38
2017-08-14 03:00:00 17.4 4 Sudeste 7 Sudeste 0 -- -- 36
2017-08-14 02:00:00 19 5 Sur 14 Sudoeste 0 -- -- 33
2017-08-14 01:00:00 21.2 14 Sur 20 Sur 0 -- -- 29
2017-08-14 00:00:00 19.3 2 Sudeste 8 Nordeste 0 -- -- 38
2017-08-13 23:00:00 22.9 8 Nordeste 12 Nordeste 0 -- -- 31
2017-08-13 22:00:00 26.1 8 Norte 12 Norte 0 -- -- 23
2017-08-13 21:00:00 29.1 10 Noroeste 17 Oeste 0 -- -- 22
2017-08-13 20:00:00 32.4 8 Oeste 24 Oeste 0 -- -- 17
2017-08-13 19:00:00 33.9 5 Nordeste 25 Noroeste 0 -- -- 16
2017-08-13 18:00:00 32.8 16 Oeste 29 Oeste 0 -- -- 16
2017-08-13 17:00:00 33.4 10 Oeste 33 Oeste 0 -- -- 17
2017-08-13 16:00:00 32.9 12 Oeste 25 Norte 0 -- -- 17
2017-08-13 15:00:00 32.3 6 Oeste 16 Noroeste 0 -- -- 17
2017-08-13 14:00:00 31.6 8 Oeste 18 Nordeste 0 -- -- 17
2017-08-13 13:00:00 30.4 8 Noroeste 14 Noroeste 0 -- -- 20
2017-08-13 12:00:00 29 4 Noroeste 10 Norte 0 -- -- 22
2017-08-13 11:00:00 23.7 5 Nordeste 12 Norte 0 -- -- 29
2017-08-13 10:00:00 19.1 8 Nordeste 11 Norte 0 -- -- 36
2017-08-13 09:00:00 15.8 5 Nordeste 7 Nordeste 0 -- -- 44
2017-08-13 08:00:00 11.3 3 Noroeste 7 Noroeste 0 -- -- 57
2017-08-13 07:00:00 11.1 5 Este 7 Este 0 -- -- 54
2017-08-13 06:00:00 11.8 5 Este 7 Nordeste 0 -- -- 53
2017-08-13 05:00:00 13.3 6 Nordeste 12 Norte 0 -- -- 51
2017-08-13 04:00:00 15.9 9 Norte 12 Norte 0 -- -- 41
2017-08-13 03:00:00 13.4 2 Noroeste 5 Nordeste 0 -- -- 48
2017-08-13 02:00:00 15.8 3 Nordeste 8 Nordeste 0 -- -- 38
2017-08-13 01:00:00 17.3 4 Nordeste 6 Nordeste 0 -- -- 35
2017-08-13 00:00:00 17.4 2 Oeste 3 Oeste 0 -- -- 38
2017-08-12 23:00:00 20.1 0 Calma 5 Oeste 0 -- -- 30
2017-08-12 22:00:00 21.8 7 Noroeste 12 Noroeste 0 -- -- 32
2017-08-12 21:00:00 26.7 9 Noroeste 13 Norte 0 -- -- 24
2017-08-12 20:00:00 30.1 9 Norte 18 Noroeste 0 -- -- 18
2017-08-12 19:00:00 31 8 Noroeste 23 Noroeste 0 -- -- 17
2017-08-12 18:00:00 31.1 13 Noroeste 28 Norte 0 -- -- 18
2017-08-12 17:00:00 30.8 10 Noroeste 22 Noroeste 0 -- -- 18
2017-08-12 16:00:00 30.5 8 Oeste 21 Nordeste 0 -- -- 19
2017-08-12 15:00:00 28.7 12 Nordeste 22 Nordeste 0 -- -- 22
2017-08-12 14:00:00 27.6 7 Nordeste 22 Norte 0 -- -- 22
2017-08-12 13:00:00 26.1 11 Norte 20 Este 0 -- -- 24
2017-08-12 12:00:00 24.1 9 Norte 15 Nordeste 0 -- -- 28
2017-08-12 11:00:00 21 9 Nordeste 14 Nordeste 0 -- -- 34
2017-08-12 10:00:00 17.7 7 Nordeste 12 Nordeste 0 -- -- 42
2017-08-12 09:00:00 14.2 4 Norte 8 Norte 0 -- -- 52
2017-08-12 08:00:00 10.2 0 Calma 7 Noroeste 0 -- -- 63
2017-08-12 07:00:00 8.1 3 Noroeste 5 Noroeste 0 -- -- 69
2017-08-12 06:00:00 9.2 3 Oeste 6 Este 0 -- -- 66
2017-08-12 05:00:00 10.7 4 Este 9 Nordeste 0 -- -- 58
2017-08-12 04:00:00 11.5 5 Nordeste 10 Sudeste 0 -- -- 55
2017-08-12 03:00:00 12.5 6 Norte 13 Este 0 -- -- 50
2017-08-12 02:00:00 14.2 12 Este 15 Nordeste 0 -- -- 48
2017-08-12 01:00:00 15.2 8 Nordeste 15 Nordeste 0 -- -- 43
2017-08-12 00:00:00 18.6 11 Nordeste 14 Nordeste 0 -- -- 33
2017-08-11 23:00:00 17.5 6 Nordeste 10 Nordeste 0 -- -- 34
2017-08-11 22:00:00 21.4 8 Norte 13 Norte 0 -- -- 26
2017-08-11 21:00:00 24.9 12 Norte 22 Noroeste 0 -- -- 21
2017-08-11 20:00:00 26.4 12 Norte 20 Norte 0 -- -- 18
2017-08-11 19:00:00 27.7 6 Norte 23 Norte 0 -- -- 19
2017-08-11 18:00:00 26.8 10 Norte 23 Nordeste 0 -- -- 21
2017-08-11 17:00:00 26 10 Norte 23 Norte 0 -- -- 20
2017-08-11 16:00:00 25.2 14 Norte 24 Norte 0 -- -- 22
2017-08-11 15:00:00 24.1 13 Norte 24 Norte 0 -- -- 24
2017-08-11 14:00:00 22.5 7 Norte 23 Norte 0 -- -- 29
2017-08-11 13:00:00 21 10 Norte 21 Noroeste 0 -- -- 31
2017-08-11 12:00:00 19.4 12 Norte 19 Norte 0 -- -- 29
2017-08-11 11:00:00 17.3 10 Nordeste 19 Nordeste 0 -- -- 41
2017-08-11 10:00:00 14.5 9 Nordeste 13 Nordeste 0 -- -- 52
2017-08-11 09:00:00 12.9 0 Calma 4 Noroeste 0 -- -- 59
2017-08-11 08:00:00 6.4 4 Noroeste 5 Noroeste 0 -- -- 85
2017-08-11 07:00:00 6.1 0 Calma 4 Nordeste 0 -- -- 83
2017-08-11 06:00:00 7.8 3 Este 6 Este 0 -- -- 72
2017-08-11 05:00:00 9.2 3 Este 13 Nordeste 0 -- -- 68
2017-08-11 04:00:00 11 7 Nordeste 14 Nordeste 0 -- -- 64
2017-08-11 03:00:00 12.4 11 Nordeste 16 Nordeste 0 -- -- 60
2017-08-11 02:00:00 12.9 13 Nordeste 24 Nordeste 0 -- -- 58
2017-08-11 01:00:00 14.4 13 Nordeste 19 Nordeste 0 -- -- 52
2017-08-11 00:00:00 15.7 12 Nordeste 17 Nordeste 0 -- -- 48
2017-08-10 23:00:00 15.5 8 Este 19 Nordeste 0 -- -- 44
2017-08-10 22:00:00 19.5 13 Nordeste 21 Nordeste 0 -- -- 35
2017-08-10 21:00:00 21.6 15 Norte 26 Norte 0 -- -- 31
2017-08-10 20:00:00 23.3 18 Norte 26 Norte 0 -- -- 29
2017-08-10 19:00:00 24.2 15 Norte 26 Norte 0 -- -- 27
2017-08-10 18:00:00 23.9 13 Norte 27 Norte 0 -- -- 30
2017-08-10 17:00:00 24 6 Nordeste 27 Norte 0 -- -- 30
2017-08-10 16:00:00 23.3 12 Nordeste 25 Nordeste 0 -- -- 33
2017-08-10 15:00:00 21.6 15 Nordeste 30 Nordeste 0 -- -- 36
2017-08-10 14:00:00 19.8 16 Norte 31 Norte 0 -- -- 41
2017-08-10 13:00:00 18.7 16 Nordeste 36 Nordeste 0 -- -- 45
2017-08-10 12:00:00 16.9 12 Norte 31 Nordeste 0 -- -- 51
2017-08-10 11:00:00 15 14 Nordeste 23 Nordeste 0 -- -- 57
2017-08-10 10:00:00 12.9 13 Nordeste 21 Nordeste 0 -- -- 63
2017-08-10 09:00:00 11.6 2 Sudoeste 4 Sudoeste 0 -- -- 63
2017-08-10 08:00:00 6.5 3 Sur 5 Oeste 0 -- -- 78
2017-08-10 07:00:00 5.7 2 Sudeste 5 Norte 0 -- -- 81
2017-08-10 06:00:00 6.4 0 Calma 12 Nordeste 0 -- -- 77
2017-08-10 05:00:00 8.5 5 Nordeste 9 Nordeste 0 -- -- 71
2017-08-10 04:00:00 9.8 9 Nordeste 16 Nordeste 0 -- -- 66
2017-08-10 03:00:00 10.7 11 Nordeste 23 Nordeste 0 -- -- 64
2017-08-10 02:00:00 11.6 15 Nordeste 26 Nordeste 0 -- -- 62
2017-08-10 01:00:00 12.6 18 Nordeste 32 Norte 0 -- -- 55
2017-08-10 00:00:00 13.5 22 Norte 35 Norte 0 -- -- 53
2017-08-09 23:00:00 15.2 20 Nordeste 35 Nordeste 0 -- -- 46
2017-08-09 22:00:00 17.1 19 Nordeste 38 Norte 0 -- -- 41
2017-08-09 21:00:00 19.1 25 Norte 41 Norte 0 -- -- 37
2017-08-09 20:00:00 21.6 21 Norte 37 Norte 0 -- -- 30
2017-08-09 19:00:00 22.8 17 Norte 33 Norte 0 -- -- 28
2017-08-09 18:00:00 23.1 17 Norte 42 Norte 0 -- -- 28
2017-08-09 17:00:00 22.5 23 Norte 42 Noroeste 0 -- -- 27
2017-08-09 16:00:00 22.7 22 Norte 39 Noroeste 0 -- -- 31
2017-08-09 15:00:00 22.1 18 Norte 35 Norte 0 -- -- 35
2017-08-09 14:00:00 20.8 16 Norte 43 Noroeste 0 -- -- 40
2017-08-09 13:00:00 19.6 20 Norte 32 Norte 0 -- -- 45
2017-08-09 12:00:00 18 20 Norte 31 Norte 0 -- -- 52
2017-08-09 11:00:00 16.3 17 Norte 26 Norte 0 -- -- 59
2017-08-09 10:00:00 14.6 14 Norte 22 Norte 0 -- -- 67
2017-08-09 09:00:00 12.6 8 Norte 15 Noroeste 0 -- -- 74
2017-08-09 08:00:00 9.5 8 Oeste 17 Noroeste 0 -- -- 84
2017-08-09 07:00:00 8 9 Oeste 15 Noroeste 0 -- -- 85
2017-08-09 06:00:00 9.1 11 Oeste 15 Noroeste 0 -- -- 84
2017-08-09 05:00:00 9.1 10 Oeste 12 Oeste 0 -- -- 79
2017-08-09 04:00:00 9.7 6 Oeste 13 Oeste 0 -- -- 70
2017-08-09 03:00:00 11 7 Noroeste 10 Noroeste 0 -- -- 61
2017-08-09 02:00:00 13.4 12 Noroeste 24 Oeste 0 -- -- 51
2017-08-09 01:00:00 13.6 16 Sudoeste 26 Oeste 0 -- -- 44
2017-08-09 00:00:00 13.8 3 Sur 4 Sur 0 -- -- 43
2017-08-08 23:00:00 15.7 2 Sudoeste 4 Sur 0 -- -- 39
2017-08-08 22:00:00 18.7 4 Norte 11 Noroeste 0 -- -- 31
2017-08-08 21:00:00 23.1 8 Noroeste 20 Oeste 0 -- -- 25
2017-08-08 20:00:00 25 9 Noroeste 21 Noroeste 0 -- -- 22
2017-08-08 19:00:00 25.9 8 Oeste 20 Oeste 0 -- -- 20
2017-08-08 18:00:00 25.9 12 Noroeste 26 Noroeste 0 -- -- 21
2017-08-08 17:00:00 24.7 9 Noroeste 26 Oeste 0 -- -- 26
2017-08-08 16:00:00 23.8 5 Nordeste 22 Noroeste 0 -- -- 34
2017-08-08 15:00:00 22.7 10 Noroeste 24 Norte 0 -- -- 37
2017-08-08 14:00:00 21 12 Oeste 23 Noroeste 0 -- -- 42
2017-08-08 13:00:00 20.3 10 Noroeste 24 Noroeste 0 -- -- 46
2017-08-08 12:00:00 19.1 10 Noroeste 18 Noroeste 0 -- -- 52
2017-08-08 11:00:00 17.6 12 Norte 19 Norte 0 -- -- 61
2017-08-08 10:00:00 15.4 15 Norte 21 Norte 0 -- -- 68
2017-08-08 09:00:00 14.4 11 Norte 15 Norte 0 -- -- 74
2017-08-08 08:00:00 13.4 5 Noroeste 8 Noroeste 0 -- -- 81
2017-08-08 07:00:00 12.5 0 Calma 5 Oeste 0 -- -- 78
2017-08-08 06:00:00 10.6 4 Noroeste 5 Noroeste 0 -- -- 82
2017-08-08 05:00:00 11.9 0 Calma 9 Oeste 0 -- -- 75
2017-08-08 04:00:00 12.1 6 Oeste 13 Oeste 0 -- -- 76
2017-08-08 03:00:00 13.7 8 Noroeste 13 Noroeste 0 -- -- 69
2017-08-08 02:00:00 15.8 14 Oeste 21 Oeste 0 -- -- 59
2017-08-08 01:00:00 17.5 11 Oeste 23 Oeste 0 -- -- 55
2017-08-08 00:00:00 19.5 18 Oeste 28 Oeste 0 -- -- 48
2017-08-07 23:00:00 21.4 18 Oeste 37 Oeste 0 -- -- 40
2017-08-07 22:00:00 24.1 25 Oeste 39 Oeste 0 -- -- 22
2017-08-07 21:00:00 26.7 22 Oeste 32 Oeste 0 -- -- 21
2017-08-07 20:00:00 28.5 25 Oeste 39 Oeste 0 -- -- 15
2017-08-07 19:00:00 30.4 27 Oeste 42 Sudoeste 0 -- -- 12
2017-08-07 18:00:00 30.1 30 Oeste 47 Sudoeste 0 -- -- 13
2017-08-07 17:00:00 31.3 27 Oeste 43 Sudoeste 0 -- -- 15
2017-08-07 16:00:00 31.2 26 Sudoeste 44 Oeste 0 -- -- 19
2017-08-07 15:00:00 29.2 22 Sudoeste 37 Sudoeste 0 -- -- 28
2017-08-07 14:00:00 27.9 22 Sudoeste 33 Sudoeste 0 -- -- 34
2017-08-07 13:00:00 26.4 26 Oeste 35 Oeste 0 -- -- 42
2017-08-07 12:00:00 24.4 15 Oeste 25 Oeste 0 -- -- 47
2017-08-07 11:00:00 21.3 11 Oeste 19 Sudoeste 0 -- -- 56
2017-08-07 10:00:00 18.6 11 Sudoeste 14 Sudoeste 0 -- -- 65
2017-08-07 09:00:00 17 5 Noroeste 9 Oeste 0 -- -- 69
2017-08-07 08:00:00 14 2 Norte 5 Nordeste 0 -- -- 76
2017-08-07 07:00:00 12.7 0 Calma 4 Este 0 -- -- 85
2017-08-07 06:00:00 13.5 3 Este 9 Norte 0 -- -- 79
2017-08-07 05:00:00 13.9 5 Norte 9 Norte 0 -- -- 77
2017-08-07 04:00:00 15.7 4 Nordeste 9 Norte 0 -- -- 71
2017-08-07 03:00:00 16.2 5 Norte 10 Norte 0 -- -- 69
2017-08-07 02:00:00 17.7 7 Norte 14 Norte 0 -- -- 64
2017-08-07 01:00:00 19.3 9 Norte 14 Norte 0 -- -- 56
2017-08-07 00:00:00 22 11 Nordeste 21 Norte 0 -- -- 49
2017-08-06 23:00:00 23.5 11 Norte 17 Norte 0 -- -- 44
2017-08-06 22:00:00 25.9 13 Norte 19 Noroeste 0 -- -- 39
2017-08-06 21:00:00 29.3 13 Oeste 30 Noroeste 0 -- -- 33
2017-08-06 20:00:00 30.9 17 Oeste 26 Oeste 0 -- -- 30
2017-08-06 19:00:00 32 16 Noroeste 26 Oeste 0 -- -- 30
2017-08-06 18:00:00 31.9 13 Noroeste 29 Noroeste 0 -- -- 29
2017-08-06 17:00:00 30.4 15 Noroeste 29 Norte 0 -- -- 33
2017-08-06 16:00:00 29.7 12 Noroeste 27 Nordeste 0 -- -- 36
2017-08-06 15:00:00 27.9 17 Nordeste 28 Norte 0 -- -- 40
2017-08-06 14:00:00 26.2 13 Norte 26 Nordeste 0 -- -- 43
2017-08-06 13:00:00 24.1 13 Nordeste 31 Norte 0 -- -- 48
2017-08-06 12:00:00 22.5 18 Nordeste 28 Norte 0 -- -- 52
2017-08-06 11:00:00 20.4 13 Norte 23 Norte 0 -- -- 58
2017-08-06 10:00:00 17.9 14 Norte 22 Nordeste 0 -- -- 67
2017-08-06 09:00:00 16.3 14 Norte 19 Norte 0 -- -- 73
2017-08-06 08:00:00 13.8 8 Norte 10 Norte 0 -- -- 83
2017-08-06 07:00:00 12.1 9 Noroeste 10 Noroeste 0 -- -- 88
2017-08-06 06:00:00 12.5 9 Norte 10 Norte 0 -- -- 86
2017-08-06 05:00:00 12.8 8 Norte 9 Noroeste 0 -- -- 84
2017-08-06 04:00:00 14.6 7 Norte 16 Norte 0 -- -- 79
2017-08-06 03:00:00 15.4 11 Norte 16 Norte 0 -- -- 76
2017-08-06 02:00:00 16 10 Norte 37 Norte 0 -- -- 74
2017-08-06 01:00:00 16.7 24 Norte 40 Norte 0 -- -- 72
2017-08-06 00:00:00 18.3 26 Norte 38 Norte 0 -- -- 66
2017-08-05 23:00:00 23 11 Norte 21 Norte 0 -- -- 51
2017-08-05 22:00:00 25.5 12 Norte 37 Nordeste 0 -- -- 44
2017-08-05 21:00:00 28.4 23 Nordeste 43 Norte 0 -- -- 39
2017-08-05 20:00:00 34.3 13 Noroeste 32 Noroeste 0 -- -- 26
2017-08-05 19:00:00 34.5 19 Noroeste 32 Noroeste 0 -- -- 25
2017-08-05 18:00:00 34.9 23 Noroeste 34 Noroeste 0 -- -- 25
2017-08-05 17:00:00 34.4 22 Oeste 36 Oeste 0 -- -- 25
2017-08-05 16:00:00 34.4 17 Oeste 33 Oeste 0 -- -- 25
2017-08-05 15:00:00 33.3 10 Oeste 29 Oeste 0 -- -- 28
2017-08-05 14:00:00 31.9 12 Oeste 22 Oeste 0 -- -- 29
2017-08-05 13:00:00 30.2 9 Oeste 15 Oeste 0 -- -- 39
2017-08-05 12:00:00 29.4 8 Noroeste 19 Noroeste 0 -- -- 43
2017-08-05 11:00:00 26.6 8 Noroeste 17 Noroeste 0 -- -- 52
2017-08-05 10:00:00 24.6 10 Noroeste 15 Noroeste 0 -- -- 56
2017-08-05 09:00:00 21.3 9 Oeste 15 Sudoeste 0 -- -- 62
2017-08-05 08:00:00 17.7 10 Sudoeste 13 Sudoeste 0 -- -- 64
2017-08-05 07:00:00 16.9 7 Sudoeste 14 Sudoeste 0 -- -- 70
2017-08-05 06:00:00 18 10 Sudoeste 15 Sudoeste 0 -- -- 66
2017-08-05 05:00:00 18.2 11 Sudoeste 17 Sudoeste 0 -- -- 63
2017-08-05 04:00:00 19.6 13 Sudoeste 16 Sudoeste 0 -- -- 61
2017-08-05 03:00:00 19.3 10 Sudoeste 15 Sudoeste 0 -- -- 55
2017-08-05 02:00:00 20.6 4 Sudoeste 10 Sudoeste 0 -- -- 44
2017-08-05 01:00:00 22.9 2 Noroeste 13 Oeste 0 -- -- 38
2017-08-05 00:00:00 25.2 9 Oeste 14 Oeste 0 -- -- 33
2017-08-04 23:00:00 27 5 Norte 18 Oeste 0 -- -- 33
2017-08-04 22:00:00 29.1 15 Oeste 21 Oeste 0 -- -- 30
2017-08-04 21:00:00 33.4 14 Oeste 28 Oeste 0 -- -- 26
2017-08-04 20:00:00 35.8 5 Oeste 21 Sudoeste 0 -- -- 25
2017-08-04 19:00:00 36.4 4 Oeste 24 Noroeste 0 -- -- 25
2017-08-04 18:00:00 35.5 9 Sudoeste 24 Oeste 0 -- -- 26
2017-08-04 17:00:00 35.1 12 Noroeste 23 Oeste 0 -- -- 27
2017-08-04 16:00:00 33.7 10 Oeste 24 Oeste 0 -- -- 30
2017-08-04 15:00:00 32.7 5 Sur 21 Oeste 0 -- -- 35
2017-08-04 14:00:00 31.3 7 Oeste 27 Sur 0 -- -- 37
2017-08-04 13:00:00 30.2 6 Noroeste 19 Oeste 0 -- -- 40
2017-08-04 12:00:00 28.5 8 Noroeste 18 Noroeste 0 -- -- 46
2017-08-04 11:00:00 26.4 6 Sudoeste 15 Noroeste 0 -- -- 51
2017-08-04 10:00:00 23.6 9 Sudoeste 15 Sudoeste 0 -- -- 61
2017-08-04 09:00:00 21.1 10 Sudoeste 15 Sudoeste 0 -- -- 69
2017-08-04 08:00:00 18.2 9 Sudoeste 15 Sudoeste 0 -- -- 75
2017-08-04 07:00:00 17.2 9 Sudoeste 14 Sur 0 -- -- 78
2017-08-04 06:00:00 19 12 Sudoeste 15 Sudoeste 0 -- -- 70
2017-08-04 05:00:00 19.2 10 Sudoeste 16 Sur 0 -- -- 69
2017-08-04 04:00:00 19.1 10 Sur 14 Sudoeste 0 -- -- 64
2017-08-04 03:00:00 20 11 Sudoeste 17 Sudoeste 0 -- -- 65
2017-08-04 02:00:00 20.6 11 Sudoeste 17 Oeste 0 -- -- 61
2017-08-04 01:00:00 23.4 16 Oeste 24 Oeste 0 -- -- 50
2017-08-04 00:00:00 23 13 Sudoeste 17 Sudoeste 0 -- -- 51
2017-08-03 23:00:00 24 12 Sudoeste 15 Oeste 0 -- -- 50
2017-08-03 22:00:00 26.5 9 Oeste 24 Oeste 0 -- -- 42
2017-08-03 21:00:00 30.1 21 Oeste 34 Oeste 0 -- -- 34
2017-08-03 20:00:00 32 24 Oeste 35 Oeste 0 -- -- 29
2017-08-03 19:00:00 32.6 22 Oeste 34 Oeste 0 -- -- 30
2017-08-03 18:00:00 32.9 20 Sudoeste 36 Sudoeste 0 -- -- 30
2017-08-03 17:00:00 32.9 19 Sudoeste 32 Sudoeste 0 -- -- 24
2017-08-03 16:00:00 32 17 Sudoeste 28 Oeste 0 -- -- 20
2017-08-03 15:00:00 31.8 12 Sudoeste 28 Oeste 0 -- -- 23
2017-08-03 14:00:00 30.6 10 Oeste 22 Sudoeste 0 -- -- 24
2017-08-03 13:00:00 29.2 8 Oeste 18 Sudoeste 0 -- -- 29
2017-08-03 12:00:00 26.5 9 Sudoeste 17 Oeste 0 -- -- 35
2017-08-03 11:00:00 24.6 8 Sudoeste 18 Oeste 0 -- -- 41
2017-08-03 10:00:00 22 11 Oeste 17 Sudoeste 0 -- -- 46
2017-08-03 09:00:00 19.5 10 Sudoeste 18 Sudoeste 0 -- -- 46
2017-08-03 08:00:00 16.1 14 Sudoeste 20 Sudoeste 0 -- -- 50
2017-08-03 07:00:00 16.6 12 Sur 19 Sudoeste 0 -- -- 45
2017-08-03 06:00:00 16.8 14 Sudoeste 19 Sur 0 -- -- 43
2017-08-03 05:00:00 16.6 13 Sudoeste 15 Sudoeste 0 -- -- 44
2017-08-03 04:00:00 17 8 Sudoeste 15 Sur 0 -- -- 41
2017-08-03 03:00:00 18.5 13 Sudoeste 18 Sudoeste 0 -- -- 36
2017-08-03 02:00:00 18.3 12 Sur 14 Sur 0 -- -- 34
2017-08-03 01:00:00 18.7 13 Sudoeste 17 Sudoeste 0 -- -- 38
2017-08-03 00:00:00 19.8 10 Oeste 14 Oeste 0 -- -- 34
2017-08-02 23:00:00 22.6 13 Oeste 17 Oeste 0 -- -- 30
2017-08-02 22:00:00 25.4 13 Oeste 17 Oeste 0 -- -- 24
2017-08-02 21:00:00 30.7 11 Oeste 24 Oeste 0 -- -- 18
2017-08-02 20:00:00 32 16 Oeste 40 Sudoeste 0 -- -- 15
2017-08-02 19:00:00 32.6 14 Sudoeste 31 Sudoeste 0 -- -- 17
2017-08-02 18:00:00 33.1 8 Sudoeste 25 Sudoeste 0 -- -- 16
2017-08-02 17:00:00 32.1 14 Oeste 28 Sudoeste 0 -- -- 18
2017-08-02 16:00:00 31.1 14 Oeste 27 Oeste 0 -- -- 19
2017-08-02 15:00:00 30.4 15 Sudoeste 28 Sudoeste 0 -- -- 20
2017-08-02 14:00:00 29.6 8 Sur 15 Nordeste 0 -- -- 25
2017-08-02 13:00:00 28 8 Nordeste 20 Este 0 -- -- 25
2017-08-02 12:00:00 27.1 4 Norte 13 Oeste 0 -- -- 29
2017-08-02 11:00:00 24.8 4 Noroeste 9 Noroeste 0 -- -- 35
2017-08-02 10:00:00 21.9 6 Noroeste 11 Oeste 0 -- -- 40
2017-08-02 09:00:00 17.9 6 Oeste 11 Sudoeste 0 -- -- 46
2017-08-02 08:00:00 13.7 6 Sudoeste 9 Sudoeste 0 -- -- 59
2017-08-02 07:00:00 12.6 2 Sudoeste 7 Sudoeste 0 -- -- 55
2017-08-02 06:00:00 13.1 7 Sudoeste 11 Sudoeste 0 -- -- 60
2017-08-02 05:00:00 15.1 8 Sur 14 Sudoeste 0 -- -- 50
2017-08-02 04:00:00 14.5 6 Sudoeste 10 Sudoeste 0 -- -- 52
2017-08-02 03:00:00 14.4 4 Sudoeste 8 Sur 0 -- -- 51
2017-08-02 02:00:00 15.7 6 Sur 9 Sudoeste 0 -- -- 45
2017-08-02 01:00:00 17.1 8 Sudoeste 9 Oeste 0 -- -- 45
2017-08-02 00:00:00 19.2 9 Oeste 11 Oeste 0 -- -- 35
2017-08-01 23:00:00 20.8 8 Oeste 17 Noroeste 0 -- -- 34
2017-08-01 22:00:00 24.3 15 Oeste 23 Noroeste 0 -- -- 29
2017-08-01 21:00:00 27.3 13 Oeste 22 Oeste 0 -- -- 23
2017-08-01 20:00:00 29.1 17 Oeste 29 Oeste 0 -- -- 20
2017-08-01 19:00:00 29.6 17 Oeste 28 Sudoeste 0 -- -- 21
2017-08-01 18:00:00 29.5 17 Sudoeste 32 Oeste 0 -- -- 23
2017-08-01 17:00:00 29.8 12 Sudoeste 24 Sudoeste 0 -- -- 24
2017-08-01 16:00:00 28.6 16 Oeste 27 Oeste 0 -- -- 28
2017-08-01 15:00:00 27.5 11 Oeste 23 Oeste 0 -- -- 32
2017-08-01 14:00:00 26.5 7 Oeste 21 Sudoeste 0 -- -- 33
2017-08-01 13:00:00 24.9 5 Este 15 Sudoeste 0 -- -- 38
2017-08-01 12:00:00 23.6 4 Sudoeste 17 Sudoeste 0 -- -- 43
2017-08-01 11:00:00 22 6 Oeste 12 Oeste 0 -- -- 49
2017-08-01 10:00:00 18.1 10 Oeste 15 Oeste 0 -- -- 61
2017-08-01 09:00:00 15.7 12 Sudoeste 17 Sudoeste 0 -- -- 67
2017-08-01 08:00:00 14 12 Sudoeste 16 Sudoeste 0 -- -- 71
2017-08-01 07:00:00 12.9 8 Sudoeste 10 Sudoeste 0 -- -- 74
2017-08-01 06:00:00 15.2 9 Sudoeste 13 Sudoeste 0 -- -- 64
2017-08-01 05:00:00 16 8 Sudoeste 11 Oeste 0 -- -- 66
2017-08-01 04:00:00 17.2 9 Sudoeste 11 Oeste 0 -- -- 59
2017-08-01 03:00:00 16.9 6 Sudoeste 12 Sudoeste 0 -- -- 56
2017-08-01 02:00:00 19 3 Norte 17 Sudoeste 0 -- -- 48
2017-08-01 01:00:00 18.7 7 Sudoeste 12 Sudoeste 0 -- -- 51
2017-08-01 00:00:00 19.7 9 Sudoeste 18 Sudoeste 0 -- -- 46
2017-07-31 23:00:00 19.9 6 Sudoeste 13 Oeste 0 -- -- 41
2017-07-31 22:00:00 21 8 Oeste 25 Oeste 0 -- -- 38
2017-07-31 21:00:00 22.4 23 Oeste 33 Oeste 0 -- -- 33
2017-07-31 20:00:00 23.6 25 Noroeste 42 Oeste 0 -- -- 31
2017-07-31 19:00:00 26.2 33 Noroeste 44 Oeste 0 -- -- 34
2017-07-31 18:00:00 29.6 18 Oeste 32 Oeste 0 -- -- 23
2017-07-31 17:00:00 27.9 19 Oeste 39 Oeste 0 -- -- 23
2017-07-31 16:00:00 28.8 24 Sudoeste 39 Oeste 0 -- -- 20
2017-07-31 15:00:00 28 15 Sudoeste 30 Sudoeste 0 -- -- 27
2017-07-31 14:00:00 25.2 15 Oeste 28 Oeste 0 -- -- 37
2017-07-31 13:00:00 24.5 16 Oeste 24 Oeste 0 -- -- 44
2017-07-31 12:00:00 22.7 12 Sudoeste 22 Sudoeste 0 -- -- 51
2017-07-31 11:00:00 20.9 9 Oeste 18 Oeste 0 -- -- 56
2017-07-31 10:00:00 18.3 9 Oeste 18 Oeste 0 -- -- 66
2017-07-31 09:00:00 16 15 Oeste 24 Sudoeste 0 -- -- 69
2017-07-31 08:00:00 13.5 11 Sudoeste 15 Sudoeste 0 -- -- 78
2017-07-31 07:00:00 12.6 11 Sudoeste 14 Sudoeste 0 -- -- 79
2017-07-31 06:00:00 13.8 12 Sudoeste 17 Sudoeste 0 -- -- 72
2017-07-31 05:00:00 14.3 14 Sudoeste 18 Sudoeste 0 -- -- 66
2017-07-31 04:00:00 14.9 9 Sudoeste 17 Sudoeste 0 -- -- 60
2017-07-31 03:00:00 16.9 14 Sudoeste 18 Sudoeste 0 -- -- 51
2017-07-31 02:00:00 17.1 13 Sudoeste 17 Sudoeste 0 -- -- 51
2017-07-31 01:00:00 17.3 8 Oeste 12 Oeste 0 -- -- 50
2017-07-31 00:00:00 19.6 3 Oeste 13 Noroeste 0 -- -- 46
2017-07-30 23:00:00 22.7 5 Norte 15 Noroeste 0 -- -- 33
2017-07-30 22:00:00 24.4 11 Noroeste 19 Oeste 0 -- -- 30
2017-07-30 21:00:00 29.3 18 Oeste 31 Oeste 0 -- -- 23
2017-07-30 20:00:00 31.3 20 Oeste 32 Oeste 0 -- -- 19
2017-07-30 19:00:00 31.9 22 Oeste 40 Sudoeste 0 -- -- 19
2017-07-30 18:00:00 32.9 30 Oeste 49 Sudoeste 0 -- -- 19
2017-07-30 17:00:00 32.6 27 Sudoeste 49 Sudoeste 0 -- -- 21
2017-07-30 16:00:00 31.5 26 Sudoeste 47 Sudoeste 0 -- -- 23
2017-07-30 15:00:00 30.8 22 Sudoeste 32 Sudoeste 0 -- -- 23
2017-07-30 14:00:00 28.5 13 Sudoeste 26 Oeste 0 -- -- 30
2017-07-30 13:00:00 27.2 13 Sudoeste 20 Sudoeste 0 -- -- 30
2017-07-30 12:00:00 25.4 10 Sudoeste 18 Oeste 0 -- -- 36
2017-07-30 11:00:00 23.2 11 Sudoeste 22 Sudoeste 0 -- -- 46
2017-07-30 10:00:00 21.2 8 Sudoeste 15 Sudoeste 0 -- -- 58
2017-07-30 09:00:00 18.7 12 Sudoeste 17 Sudoeste 0 -- -- 65
2017-07-30 08:00:00 16.3 10 Sudoeste 13 Sudoeste 0 -- -- 69
2017-07-30 07:00:00 15.2 8 Sudoeste 12 Sur 0 -- -- 74
2017-07-30 06:00:00 15.6 6 Sudoeste 9 Sur 0 -- -- 71
2017-07-30 05:00:00 16.8 8 Sudoeste 15 Oeste 0 -- -- 62
2017-07-30 04:00:00 17.6 7 Sudoeste 14 Sudoeste 0 -- -- 63
2017-07-30 03:00:00 18.6 14 Sudoeste 16 Sudoeste 0 -- -- 53
2017-07-30 02:00:00 19.9 8 Sudoeste 14 Sudoeste 0 -- -- 52
2017-07-30 01:00:00 23 8 Sudoeste 16 Oeste 0 -- -- 44
2017-07-30 00:00:00 23.9 15 Oeste 22 Oeste 0 -- -- 36
2017-07-29 23:00:00 26 20 Oeste 24 Noroeste 0 -- -- 28
2017-07-29 22:00:00 26.3 10 Oeste 24 Oeste 0 -- -- 29
2017-07-29 21:00:00 30.5 19 Oeste 43 Sudoeste 0 -- -- 23
2017-07-29 20:00:00 32.5 20 Sudoeste 36 Sudoeste 0 -- -- 22
2017-07-29 19:00:00 33 22 Sudoeste 37 Oeste 0 -- -- 19
2017-07-29 18:00:00 33.6 22 Sudoeste 37 Sudoeste 0 -- -- 20
2017-07-29 17:00:00 33.7 17 Oeste 32 Oeste 0 -- -- 20
2017-07-29 16:00:00 32.3 16 Sudoeste 38 Sudoeste 0 -- -- 24
2017-07-29 15:00:00 31.1 14 Sudoeste 30 Sudoeste 0 -- -- 26
2017-07-29 14:00:00 29.5 14 Sudoeste 29 Sudoeste 0 -- -- 32
2017-07-29 13:00:00 27 20 Sudoeste 32 Sudoeste 0 -- -- 40
2017-07-29 12:00:00 25.7 17 Oeste 27 Oeste 0 -- -- 48
2017-07-29 11:00:00 24.3 15 Oeste 27 Sudoeste 0 -- -- 53
2017-07-29 10:00:00 22.1 17 Oeste 23 Sudoeste 0 -- -- 62
2017-07-29 09:00:00 19.7 17 Sudoeste 24 Sudoeste 0 -- -- 68
2017-07-29 08:00:00 17.3 14 Sudoeste 21 Sudoeste 0 -- -- 70
2017-07-29 07:00:00 16.5 16 Sudoeste 21 Sudoeste 0 -- -- 68
2017-07-29 06:00:00 16.3 16 Sudoeste 20 Sudoeste 0 -- -- 61
2017-07-29 05:00:00 17.3 14 Sudoeste 22 Sudoeste 0 -- -- 52
2017-07-29 04:00:00 18.5 15 Sudoeste 21 Sudoeste 0 -- -- 44
2017-07-29 03:00:00 18.2 11 Sudoeste 19 Sudoeste 0 -- -- 48
2017-07-29 02:00:00 19.8 15 Sudoeste 20 Sudoeste 0 -- -- 40
2017-07-29 01:00:00 20.5 9 Sudoeste 13 Sur 0 -- -- 38
2017-07-29 00:00:00 21.1 6 Sudoeste 8 Noroeste 0 -- -- 35
2017-07-28 23:00:00 23.1 7 Oeste 15 Oeste 0 -- -- 34
2017-07-28 22:00:00 26.7 13 Oeste 25 Oeste 0 -- -- 27
2017-07-28 21:00:00 31.4 18 Oeste 31 Oeste 0 -- -- 23
2017-07-28 20:00:00 33.1 18 Oeste 32 Oeste 0 -- -- 26
2017-07-28 19:00:00 33.9 17 Oeste 35 Oeste 0 -- -- 27
2017-07-28 18:00:00 33.6 16 Oeste 41 Oeste 0 -- -- 27
2017-07-28 17:00:00 32.8 18 Oeste 32 Sudoeste 0 -- -- 29
2017-07-28 16:00:00 32.3 10 Sudoeste 30 Oeste 0 -- -- 25
2017-07-28 15:00:00 31.4 14 Sudoeste 33 Oeste 0 -- -- 21
2017-07-28 14:00:00 30.2 6 Sur 17 Sudoeste 0 -- -- 27
2017-07-28 13:00:00 28.5 8 Sudoeste 19 Oeste 0 -- -- 30
2017-07-28 12:00:00 27.1 8 Sudoeste 18 Sudoeste 0 -- -- 36
2017-07-28 11:00:00 24.7 9 Sudoeste 14 Oeste 0 -- -- 53
2017-07-28 10:00:00 22.6 8 Oeste 15 Oeste 0 -- -- 61
2017-07-28 09:00:00 19.7 10 Sudoeste 15 Sudoeste 0 -- -- 69
2017-07-28 08:00:00 16.7 12 Sudoeste 18 Sudoeste 0 -- -- 74
2017-07-28 07:00:00 15.9 15 Sudoeste 18 Sudoeste 0 -- -- 75
2017-07-28 06:00:00 16.1 15 Sudoeste 17 Sudoeste 0 -- -- 71
2017-07-28 05:00:00 17 13 Sudoeste 17 Sudoeste 0 -- -- 63
2017-07-28 04:00:00 17 14 Sudoeste 19 Sudoeste 0 -- -- 63
2017-07-28 03:00:00 17.6 13 Sudoeste 16 Sudoeste 0 -- -- 56
2017-07-28 02:00:00 19 8 Oeste 12 Oeste 0 -- -- 58
2017-07-28 01:00:00 20.9 10 Oeste 20 Oeste 0 -- -- 44
2017-07-28 00:00:00 21.2 13 Sudoeste 21 Sudoeste 0 -- -- 41
2017-07-27 23:00:00 21.4 10 Sudoeste 12 Oeste 0 -- -- 42
2017-07-27 22:00:00 25.8 9 Oeste 23 Oeste 0 -- -- 31
2017-07-27 21:00:00 31.9 19 Oeste 28 Oeste 0 -- -- 20
2017-07-27 20:00:00 34 21 Oeste 34 Oeste 0 -- -- 14
2017-07-27 19:00:00 34.5 19 Oeste 38 Sudoeste 0 -- -- 12
2017-07-27 18:00:00 34.2 24 Oeste 37 Oeste 0 -- -- 13
2017-07-27 17:00:00 33.8 27 Sudoeste 41 Sudoeste 0 -- -- 16
2017-07-27 16:00:00 33.1 20 Sudoeste 36 Sudoeste 0 -- -- 23
2017-07-27 15:00:00 32.7 14 Oeste 30 Oeste 0 -- -- 25
2017-07-27 14:00:00 31.1 12 Sudoeste 21 Oeste 0 -- -- 27
2017-07-27 13:00:00 30.1 8 Oeste 17 Oeste 0 -- -- 28
2017-07-27 12:00:00 28.4 8 Oeste 14 Oeste 0 -- -- 30
2017-07-27 11:00:00 26.4 6 Oeste 12 Oeste 0 -- -- 33
2017-07-27 10:00:00 24.1 5 Oeste 13 Sudoeste 0 -- -- 39
2017-07-27 09:00:00 20.5 8 Sudoeste 13 Sudoeste 0 -- -- 48
2017-07-27 08:00:00 16.9 11 Sudoeste 21 Sudoeste 0 -- -- 54
2017-07-27 07:00:00 15.7 17 Sudoeste 19 Sudoeste 0 -- -- 57
2017-07-27 06:00:00 15.3 14 Sudoeste 15 Sudoeste 0 -- -- 61
2017-07-27 05:00:00 16 9 Sur 12 Sudoeste 0 -- -- 55
2017-07-27 04:00:00 16.8 10 Sudoeste 16 Oeste 0 -- -- 57
2017-07-27 03:00:00 18.6 14 Sudoeste 15 Sudoeste 0 -- -- 50
2017-07-27 02:00:00 18.9 13 Sudoeste 25 Oeste 0 -- -- 50
2017-07-27 01:00:00 19.4 8 Sur 14 Sur 0 -- -- 44
2017-07-27 00:00:00 21.4 10 Sur 11 Sur 0 -- -- 36
2017-07-26 23:00:00 22.9 5 Este 10 Este 0 -- -- 34
2017-07-26 22:00:00 25.7 7 Este 8 Este 0 -- -- 30
2017-07-26 21:00:00 29.8 4 Noroeste 16 Nordeste 0 -- -- 24
2017-07-26 20:00:00 30.5 12 Norte 22 Noroeste 0 -- -- 23
2017-07-26 19:00:00 32.2 10 Oeste 22 Noroeste 0 -- -- 22
2017-07-26 18:00:00 32.4 7 Noroeste 22 Noroeste 0 -- -- 22
2017-07-26 17:00:00 31.2 7 Oeste 24 Oeste 0 -- -- 26
2017-07-26 16:00:00 30.7 5 Noroeste 20 Noroeste 0 -- -- 29
2017-07-26 15:00:00 28.8 6 Norte 27 Noroeste 0 -- -- 31
2017-07-26 14:00:00 27.5 5 Nordeste 19 Norte 0 -- -- 34
2017-07-26 13:00:00 26.2 6 Nordeste 15 Nordeste 0 -- -- 36
2017-07-26 12:00:00 24.6 6 Este 15 Nordeste 0 -- -- 40
2017-07-26 11:00:00 22.9 6 Nordeste 12 Este 0 -- -- 40
2017-07-26 10:00:00 20.8 4 Sudeste 8 Este 0 -- -- 44
2017-07-26 09:00:00 17.5 4 Nordeste 6 Nordeste 0 -- -- 54
2017-07-26 08:00:00 14.9 2 Sudeste 11 Norte 0 -- -- 62
2017-07-26 07:00:00 12.6 3 Norte 12 Norte 0 -- -- 68
2017-07-26 06:00:00 13.1 3 Norte 12 Nordeste 0 -- -- 69
2017-07-26 05:00:00 14.6 8 Nordeste 12 Norte 0 -- -- 62
2017-07-26 04:00:00 14.4 7 Nordeste 10 Nordeste 0 -- -- 62
2017-07-26 03:00:00 15.1 5 Nordeste 12 Nordeste 0 -- -- 60
2017-07-26 02:00:00 16.6 9 Nordeste 15 Nordeste 0 -- -- 56
2017-07-26 01:00:00 17.1 9 Este 24 Este 0 -- -- 54
2017-07-26 00:00:00 18.6 14 Este 24 Nordeste 0 -- -- 48
2017-07-25 23:00:00 20.6 12 Nordeste 18 Nordeste 0 -- -- 42
2017-07-25 22:00:00 23 9 Nordeste 21 Norte 0 -- -- 36
2017-07-25 21:00:00 25.6 12 Norte 24 Norte 0 -- -- 29
2017-07-25 20:00:00 27 17 Norte 27 Noroeste 0 -- -- 27
2017-07-25 19:00:00 27.4 15 Norte 30 Norte 0 -- -- 25
2017-07-25 18:00:00 27.7 12 Norte 26 Norte 0 -- -- 23
2017-07-25 17:00:00 27.4 16 Norte 27 Norte 0 -- -- 24
2017-07-25 16:00:00 27.1 9 Norte 39 Norte 0 -- -- 28
2017-07-25 15:00:00 25.5 15 Norte 26 Norte 0 -- -- 32
2017-07-25 14:00:00 23.8 17 Norte 28 Norte 0 -- -- 34
2017-07-25 13:00:00 22.6 12 Norte 22 Norte 0 -- -- 39
2017-07-25 12:00:00 20.6 13 Norte 24 Nordeste 0 -- -- 45
2017-07-25 11:00:00 19.1 10 Nordeste 23 Nordeste 0 -- -- 53
2017-07-25 10:00:00 16.8 15 Norte 25 Norte 0 -- -- 62
2017-07-25 09:00:00 15.2 10 Norte 14 Norte 0 -- -- 67
2017-07-25 08:00:00 12.8 4 Sudoeste 6 Sudoeste 0 -- -- 81
2017-07-25 07:00:00 11.4 0 Calma 6 Nordeste 0 -- -- 82
2017-07-25 06:00:00 12.9 4 Nordeste 12 Norte 0 -- -- 77
2017-07-25 05:00:00 13.5 7 Norte 18 Norte 0 -- -- 75
2017-07-25 04:00:00 14.4 10 Norte 17 Nordeste 0 -- -- 74
2017-07-25 03:00:00 15.3 9 Norte 17 Norte 0 -- -- 69
2017-07-25 02:00:00 16 8 Norte 16 Norte 0 -- -- 67
2017-07-25 01:00:00 17.9 12 Norte 23 Nordeste 0 -- -- 60
2017-07-25 00:00:00 20 18 Nordeste 27 Nordeste 0 -- -- 52
2017-07-24 23:00:00 22 16 Nordeste 34 Norte 0 -- -- 47
2017-07-24 22:00:00 24.9 21 Norte 29 Norte 0 -- -- 34
2017-07-24 21:00:00 26.5 18 Noroeste 27 Noroeste 0 -- -- 29
2017-07-24 20:00:00 28.4 16 Noroeste 35 Noroeste 0 -- -- 25
2017-07-24 19:00:00 29.2 17 Noroeste 34 Noroeste 0 -- -- 25
2017-07-24 18:00:00 29.9 6 Noroeste 28 Noroeste 0 -- -- 25
2017-07-24 17:00:00 29 13 Noroeste 27 Noroeste 0 -- -- 28
2017-07-24 16:00:00 27.8 9 Noroeste 23 Oeste 0 -- -- 34
2017-07-24 15:00:00 26.6 10 Oeste 24 Oeste 0 -- -- 36
2017-07-24 14:00:00 26.3 8 Oeste 20 Noroeste 0 -- -- 40
2017-07-24 13:00:00 24 9 Oeste 22 Noroeste 0 -- -- 49
2017-07-24 12:00:00 23.3 6 Nordeste 17 Noroeste 0 -- -- 52
2017-07-24 11:00:00 22.5 6 Norte 15 Norte 0 -- -- 56
2017-07-24 10:00:00 20.4 8 Norte 13 Norte 0 -- -- 63
2017-07-24 09:00:00 18.7 5 Norte 8 Norte 0 -- -- 68
2017-07-24 08:00:00 15.7 2 Sur 4 Noroeste 0 -- -- 78
2017-07-24 07:00:00 14 2 Noroeste 9 Norte 0 -- -- 83
2017-07-24 06:00:00 13.9 4 Noroeste 9 Noroeste 0 -- -- 84
2017-07-24 05:00:00 14.8 6 Noroeste 13 Noroeste 0 -- -- 80
2017-07-24 04:00:00 16.2 9 Noroeste 14 Noroeste 0 -- -- 75
2017-07-24 03:00:00 17.6 12 Oeste 17 Noroeste 0 -- -- 71
2017-07-24 02:00:00 19.5 13 Noroeste 34 Noroeste 0 -- -- 62
2017-07-24 01:00:00 21.4 23 Noroeste 36 Noroeste 0 -- -- 56
2017-07-24 00:00:00 22.9 22 Noroeste 34 Noroeste 0 -- -- 50
2017-07-23 23:00:00 24 19 Oeste 26 Oeste 0 -- -- 42
2017-07-23 22:00:00 23.8 10 Sudoeste 14 Oeste 0 -- -- 37
2017-07-23 21:00:00 29 9 Oeste 22 Oeste 0 -- -- 26
2017-07-23 20:00:00 30.2 15 Oeste 30 Noroeste 0 -- -- 23
2017-07-23 19:00:00 30.7 15 Oeste 26 Noroeste 0 -- -- 24
2017-07-23 18:00:00 30.6 13 Noroeste 29 Noroeste 0 -- -- 23
2017-07-23 17:00:00 30.2 14 Oeste 30 Noroeste 0 -- -- 25
2017-07-23 16:00:00 29 13 Oeste 36 Oeste 0 -- -- 28
2017-07-23 15:00:00 27.9 11 Sudoeste 24 Oeste 0 -- -- 33
2017-07-23 14:00:00 27.7 9 Noroeste 20 Noroeste 0 -- -- 34
2017-07-23 13:00:00 25.4 11 Noroeste 23 Noroeste 0 -- -- 43
2017-07-23 12:00:00 23.8 13 Noroeste 22 Noroeste 0 -- -- 48
2017-07-23 11:00:00 21.6 7 Noroeste 14 Noroeste 0 -- -- 56
2017-07-23 10:00:00 19.2 5 Noroeste 10 Noroeste 0 -- -- 63
2017-07-23 09:00:00 16.2 8 Norte 12 Noroeste 0 -- -- 75
2017-07-23 08:00:00 13.6 7 Noroeste 9 Noroeste 0 -- -- 81
2017-07-23 07:00:00 11.4 0 Calma 7 Oeste 0 -- -- 81
2017-07-23 06:00:00 11.4 6 Sudoeste 6 Oeste 0 -- -- 80
2017-07-23 05:00:00 12.4 6 Oeste 12 Sudoeste 0 -- -- 75
2017-07-23 04:00:00 13.5 9 Sudoeste 15 Sudoeste 0 -- -- 71
2017-07-23 03:00:00 15.1 14 Sudoeste 15 Sudoeste 0 -- -- 66
2017-07-23 02:00:00 16.7 10 Oeste 16 Oeste 0 -- -- 60
2017-07-23 01:00:00 17.9 12 Oeste 15 Oeste 0 -- -- 56
2017-07-23 00:00:00 19.6 12 Oeste 15 Oeste 0 -- -- 51